ルクセンブルク の空港の天気 - METARとTAF

ルクセンブルク-フィンデル空港 ( ELLX / LUX ) - ルクセンブルク ルクセンブルク
飛行場実況気象(Metar)
観測時間09/27 00:20 CEST (09/26 22:20 UTC)
風向・風速西 5m/s
視程7000m
天気現象弱い雨
少しの雲 雲底高度 150m
全天の4割程度の雲 雲底高度 370m
全天の8割程度の雲 雲底高度 670m
気温8℃
湿度100%
気圧1001hPa
METARELLX 262220Z AUTO 26010KT 7000 -RA FEW005/// SCT012/// BKN022/// 08/08 Q1001 TEMPO 4000 +RA
過去の天気等 Google飛行場航空写真 Wunderground天気予報

過去48時間のMETAR

飛行場予報(TAF)
発表時間: 9/26 19:00 CEST (9/26 17:00 UTC)
予報対象時間: 26日20時 CEST ~ 28日2時 CEST
風向・風速西 5m/s 瞬間風速 10m/s
視程10km以上
全天の8割程度の雲 雲底高度 460m
26日21時 CEST ~ 26日24時 CEST に徐々に
風向・風速西 3m/s
視程5000m
天気現象
全天の8割程度の雲 雲底高度 370m
27日2時 CEST ~ 27日7時 CEST に 確率 40% で一時的に
風向・風速南西 8m/s 瞬間風速 13m/s
視程3500m
天気現象強い雨
27日10時 CEST ~ 27日14時 CEST に徐々に
風向・風速東南東 5m/s 瞬間風速 10m/s
視程10km以上
天気現象運行に影響にある天気現象が終了
全天の8割程度の雲 雲底高度 460m
TAF ELLX 261700Z 2618/2724 27010G20KT 9999 BKN015
BECMG 2619/2622 27005KT 5000 RA BKN012
PROB40 TEMPO 2700/2705 22015G25KT 3500 +RA
BECMG 2708/2712 11010G20KT 9999 NSW BKN015